createdAt,value
2019-02-22T00:01:57.782Z,11.70
2019-02-22T00:04:27.495Z,11.70
2019-02-22T00:06:57.238Z,11.60
2019-02-22T00:09:26.921Z,11.60
2019-02-22T00:11:56.691Z,11.60
2019-02-22T00:14:26.365Z,11.60
2019-02-22T00:16:56.047Z,11.60
2019-02-22T00:19:25.802Z,11.50
2019-02-22T00:21:56.185Z,11.50
2019-02-22T00:24:26.572Z,11.50
2019-02-22T00:26:56.259Z,11.50
2019-02-22T00:29:26.000Z,11.50
2019-02-22T00:31:55.655Z,11.40
2019-02-22T00:34:25.413Z,11.40
2019-02-22T00:36:55.130Z,11.40
2019-02-22T00:39:24.758Z,11.40
2019-02-22T00:41:54.462Z,11.40
2019-02-22T00:44:24.136Z,11.30
2019-02-22T00:46:53.857Z,11.30
2019-02-22T00:49:24.213Z,11.30
2019-02-22T00:51:53.953Z,11.30
2019-02-22T00:54:23.621Z,11.30
2019-02-22T00:57:12.640Z,11.30
2019-02-22T00:59:42.327Z,11.20
2019-02-22T01:02:11.993Z,11.20
2019-02-22T01:04:41.680Z,11.20
2019-02-22T01:07:11.438Z,11.20
2019-02-22T01:09:41.194Z,11.20
2019-02-22T01:12:13.445Z,11.10
2019-02-22T01:14:43.198Z,11.10
2019-02-22T01:17:12.859Z,11.10
2019-02-22T01:19:45.297Z,11.10
2019-02-22T01:22:14.961Z,11.00
2019-02-22T01:24:44.634Z,11.00
2019-02-22T01:27:14.382Z,11.00
2019-02-22T01:29:44.046Z,11.00
2019-02-22T01:32:16.363Z,11.00
2019-02-22T01:34:46.054Z,11.00
2019-02-22T01:37:15.812Z,10.90
2019-02-22T01:39:45.532Z,10.90
2019-02-22T01:42:15.268Z,10.90
2019-02-22T01:44:46.426Z,10.90
2019-02-22T01:47:16.186Z,10.90
2019-02-22T01:49:45.864Z,10.80
2019-02-22T01:52:15.530Z,10.80
2019-02-22T01:54:45.193Z,10.80
2019-02-22T01:57:15.484Z,10.80
2019-02-22T01:59:45.154Z,10.80
2019-02-22T02:02:14.810Z,10.70
2019-02-22T02:04:44.517Z,10.70
2019-02-22T02:07:14.183Z,10.70
2019-02-22T02:09:44.116Z,10.70
2019-02-22T02:12:13.813Z,10.60
2019-02-22T02:14:43.470Z,10.60
2019-02-22T02:17:13.137Z,10.60
2019-02-22T02:19:43.121Z,10.60
2019-02-22T02:22:12.855Z,10.50
2019-02-22T02:24:42.518Z,10.50
2019-02-22T02:27:15.190Z,10.50
2019-02-22T02:29:44.926Z,10.50
2019-02-22T02:32:14.613Z,10.50
2019-02-22T02:34:44.735Z,10.40
2019-02-22T02:37:14.382Z,10.50
2019-02-22T02:39:44.108Z,10.50
2019-02-22T02:42:13.815Z,10.40
2019-02-22T02:44:43.483Z,10.40
2019-02-22T02:47:13.134Z,10.40
2019-02-22T02:49:42.830Z,10.40
2019-02-22T02:52:12.489Z,10.40
2019-02-22T02:54:42.234Z,10.40
2019-02-22T02:57:12.019Z,10.40
2019-02-22T02:59:41.688Z,10.30
2019-02-22T03:02:14.590Z,10.30
2019-02-22T03:04:44.290Z,10.30
2019-02-22T03:07:15.607Z,10.30
2019-02-22T03:09:45.316Z,10.30
2019-02-22T03:12:15.007Z,10.30
2019-02-22T03:14:44.660Z,10.20
2019-02-22T03:17:14.326Z,10.20
2019-02-22T03:19:44.029Z,10.20
2019-02-22T03:22:18.711Z,10.20
2019-02-22T03:24:48.726Z,10.20
2019-02-22T03:27:18.738Z,10.20
2019-02-22T03:29:48.418Z,10.20
2019-02-22T03:32:18.105Z,10.20
2019-02-22T03:34:47.788Z,10.20
2019-02-22T03:37:17.458Z,10.20
2019-02-22T03:39:47.117Z,10.20
2019-02-22T03:42:19.540Z,10.20
2019-02-22T03:44:51.413Z,10.20
2019-02-22T03:47:21.088Z,10.20
2019-02-22T03:49:50.793Z,10.20
2019-02-22T03:52:32.060Z,10.20
2019-02-22T03:55:06.080Z,10.20
2019-02-22T03:57:38.726Z,10.20
2019-02-22T04:00:11.602Z,10.20
2019-02-22T04:02:41.265Z,10.20
2019-02-22T04:05:10.941Z,10.20
2019-02-22T04:07:40.629Z,10.20
2019-02-22T04:10:10.500Z,10.20
2019-02-22T04:12:43.113Z,10.10
2019-02-22T04:15:12.801Z,10.10
2019-02-22T04:17:42.661Z,10.10
2019-02-22T04:20:12.297Z,10.10
2019-02-22T04:22:44.501Z,10.10
2019-02-22T04:25:13.408Z,10.00
2019-02-22T04:27:43.069Z,10.00
2019-02-22T04:30:14.423Z,10.00
2019-02-22T04:32:44.061Z,10.00
2019-02-22T04:35:13.996Z,10.00
2019-02-22T04:37:44.268Z,10.00
2019-02-22T04:40:13.944Z,9.90
2019-02-22T04:42:43.594Z,9.90
2019-02-22T04:45:13.277Z,9.90
2019-02-22T04:47:42.953Z,9.80
2019-02-22T04:50:12.615Z,9.80
2019-02-22T04:52:42.326Z,9.80
2019-02-22T04:55:12.003Z,9.70
2019-02-22T04:57:41.664Z,9.70
2019-02-22T05:00:11.596Z,9.70
2019-02-22T05:02:42.065Z,9.60
2019-02-22T05:05:13.381Z,9.60
2019-02-22T05:07:43.058Z,9.60
2019-02-22T05:10:12.722Z,9.60
2019-02-22T05:12:42.402Z,9.50
2019-02-22T05:15:13.561Z,9.50
2019-02-22T05:17:43.283Z,9.50
2019-02-22T05:20:14.391Z,9.50
2019-02-22T05:22:44.066Z,9.40
2019-02-22T05:25:14.973Z,9.40
2019-02-22T05:27:44.627Z,9.40
2019-02-22T05:30:14.391Z,9.30
2019-02-22T05:32:44.042Z,9.30
2019-02-22T05:35:13.710Z,9.30
2019-02-22T05:37:43.537Z,9.30
2019-02-22T05:40:13.191Z,9.30
2019-02-22T05:42:42.872Z,9.20
2019-02-22T05:45:12.808Z,9.20
2019-02-22T05:47:44.111Z,9.20
2019-02-22T05:50:15.435Z,9.10
2019-02-22T05:52:45.127Z,9.10
2019-02-22T05:55:14.809Z,9.10
2019-02-22T05:57:44.454Z,9.00
2019-02-22T06:00:15.133Z,9.00
2019-02-22T06:02:45.143Z,9.00
2019-02-22T06:05:16.396Z,9.00
2019-02-22T06:07:48.001Z,9.00
2019-02-22T06:10:18.022Z,9.00
2019-02-22T06:12:47.729Z,8.90
2019-02-22T06:15:17.419Z,8.90
2019-02-22T06:17:48.098Z,8.90
2019-02-22T06:20:17.922Z,8.90
2019-02-22T06:22:47.621Z,8.90
2019-02-22T06:25:17.297Z,8.80
2019-02-22T06:27:48.810Z,8.80
2019-02-22T06:30:18.490Z,8.80
2019-02-22T06:32:48.149Z,8.80
2019-02-22T06:35:17.820Z,8.80
2019-02-22T06:37:48.155Z,8.80
2019-02-22T06:40:19.492Z,8.80
2019-02-22T06:42:50.617Z,8.70
2019-02-22T06:45:20.383Z,8.70
2019-02-22T06:47:50.037Z,8.70
2019-02-22T06:50:19.770Z,8.70
2019-02-22T06:52:49.467Z,8.80
2019-02-22T06:55:19.140Z,8.70
2019-02-22T06:57:48.795Z,8.80
2019-02-22T07:00:18.568Z,8.80
2019-02-22T07:02:48.223Z,8.80
2019-02-22T07:05:17.926Z,8.80
2019-02-22T07:07:48.073Z,8.80
2019-02-22T07:10:17.773Z,8.90
2019-02-22T07:12:56.741Z,8.90
2019-02-22T07:15:24.233Z,8.90
2019-02-22T07:17:55.667Z,9.00
2019-02-22T07:20:25.415Z,9.00
2019-02-22T07:22:55.111Z,9.00
2019-02-22T07:25:24.780Z,9.00
2019-02-22T07:27:54.458Z,9.10
2019-02-22T07:30:24.157Z,9.10
2019-02-22T07:32:53.888Z,9.10
2019-02-22T07:35:23.657Z,9.20
2019-02-22T07:37:53.355Z,9.20
2019-02-22T07:40:23.007Z,9.30
2019-02-22T07:42:52.672Z,9.30
2019-02-22T07:45:22.442Z,9.40
2019-02-22T07:47:52.124Z,9.20
2019-02-22T07:50:22.742Z,9.50
2019-02-22T07:52:52.451Z,9.60
2019-02-22T07:55:23.208Z,9.60
2019-02-22T07:57:52.868Z,9.70
2019-02-22T08:00:22.891Z,9.80
2019-02-22T08:02:52.778Z,9.90
2019-02-22T08:05:22.460Z,9.90
2019-02-22T08:07:52.152Z,10.00
2019-02-22T08:10:21.810Z,10.10
2019-02-22T08:12:51.486Z,10.10
2019-02-22T08:15:21.175Z,10.20
2019-02-22T08:17:50.842Z,10.20
2019-02-22T08:20:20.519Z,10.30
2019-02-22T08:22:50.224Z,10.40
2019-02-22T08:25:19.870Z,10.50
2019-02-22T08:27:53.908Z,10.50
2019-02-22T08:30:22.953Z,9.90
2019-02-22T08:32:52.696Z,10.70
2019-02-22T08:35:22.370Z,10.70
2019-02-22T08:37:52.139Z,10.80
2019-02-22T08:40:22.889Z,10.80
2019-02-22T08:42:52.567Z,10.90
2019-02-22T08:45:22.280Z,11.00
2019-02-22T08:47:51.959Z,11.10
2019-02-22T08:50:23.777Z,11.10
2019-02-22T08:52:53.744Z,11.20
2019-02-22T08:55:23.415Z,11.30
2019-02-22T08:57:53.873Z,11.30
2019-02-22T09:00:23.592Z,11.40
2019-02-22T09:02:56.249Z,11.40
2019-02-22T09:05:25.947Z,11.50
2019-02-22T09:07:55.621Z,11.50
2019-02-22T09:10:26.771Z,11.50
2019-02-22T09:12:56.448Z,11.60
2019-02-22T09:15:26.145Z,11.60
2019-02-22T09:17:55.810Z,11.70
2019-02-22T09:20:26.496Z,11.70
2019-02-22T09:22:59.092Z,11.70
2019-02-22T09:25:28.750Z,11.70
2019-02-22T09:27:58.448Z,11.70
2019-02-22T09:30:28.219Z,11.80
2019-02-22T09:33:01.249Z,11.80
2019-02-22T09:35:30.953Z,11.80
2019-02-22T09:38:00.636Z,11.80
2019-02-22T09:40:31.661Z,11.90
2019-02-22T09:43:02.222Z,11.90
2019-02-22T09:45:34.883Z,11.90
2019-02-22T09:48:04.542Z,11.90
2019-02-22T09:50:34.247Z,11.90
2019-02-22T09:53:04.100Z,12.00
2019-02-22T09:55:33.768Z,12.10
2019-02-22T09:58:03.472Z,12.10
2019-02-22T10:00:33.178Z,12.20
2019-02-22T10:03:02.844Z,12.20
2019-02-22T10:05:32.575Z,12.20
2019-02-22T10:08:02.275Z,12.30
2019-02-22T10:10:32.004Z,12.40
2019-02-22T10:13:01.705Z,12.40
2019-02-22T10:15:32.607Z,12.50
2019-02-22T10:18:04.017Z,12.60
2019-02-22T10:20:33.729Z,12.60
2019-02-22T10:23:05.286Z,12.70
2019-02-22T10:25:34.962Z,12.80
2019-02-22T10:28:16.905Z,12.80
2019-02-22T10:30:37.253Z,12.90
2019-02-22T10:33:06.957Z,13.00
2019-02-22T10:35:36.691Z,13.00
2019-02-22T10:38:06.359Z,13.10
2019-02-22T10:40:39.297Z,13.10
2019-02-22T10:43:09.153Z,13.10
2019-02-22T10:45:38.868Z,13.20
2019-02-22T10:48:09.749Z,13.20
2019-02-22T10:50:39.460Z,13.30
2019-02-22T10:53:09.196Z,13.40
2019-02-22T10:55:38.872Z,13.40
2019-02-22T10:58:08.614Z,13.50
2019-02-22T11:00:38.778Z,13.50
2019-02-22T11:03:11.358Z,13.60
2019-02-22T11:05:41.053Z,13.70
2019-02-22T11:08:18.008Z,13.80
2019-02-22T11:10:47.719Z,13.90
2019-02-22T11:13:17.407Z,14.00
2019-02-22T11:15:47.152Z,14.10
2019-02-22T11:18:18.310Z,14.20
2019-02-22T11:20:48.074Z,14.30
2019-02-22T11:23:18.006Z,14.50
2019-02-22T11:25:48.052Z,14.60
2019-02-22T11:28:18.920Z,14.80
2019-02-22T11:30:48.602Z,14.90
2019-02-22T11:33:18.585Z,15.00
2019-02-22T11:35:48.340Z,15.10
2019-02-22T11:38:18.002Z,15.30
2019-02-22T11:40:48.087Z,15.40
2019-02-22T11:43:17.969Z,15.50
2019-02-22T11:45:49.917Z,15.60
2019-02-22T11:48:19.239Z,15.70
2019-02-22T11:50:48.977Z,15.80
2019-02-22T11:53:18.736Z,15.90
2019-02-22T11:55:48.442Z,16.10
2019-02-22T11:58:18.187Z,16.20
2019-02-22T12:00:48.068Z,16.30
2019-02-22T12:03:24.724Z,16.40
2019-02-22T12:05:49.422Z,16.50
2019-02-22T12:08:20.438Z,16.60
2019-02-22T12:10:50.119Z,16.70
2019-02-22T12:13:20.781Z,16.80
2019-02-22T12:15:50.519Z,16.90
2019-02-22T12:18:20.214Z,16.90
2019-02-22T12:20:49.947Z,16.90
2019-02-22T12:23:19.621Z,16.90
2019-02-22T12:25:55.097Z,16.90
2019-02-22T12:28:24.774Z,16.80
2019-02-22T12:30:54.527Z,16.80
2019-02-22T12:33:24.264Z,16.70
2019-02-22T12:35:54.017Z,16.70
2019-02-22T12:38:23.791Z,16.60
2019-02-22T12:40:53.531Z,16.60
2019-02-22T12:43:23.218Z,16.60
2019-02-22T12:45:52.961Z,16.60
2019-02-22T12:48:22.653Z,16.70
2019-02-22T12:50:52.341Z,16.70
2019-02-22T12:53:22.027Z,16.70
2019-02-22T12:55:51.802Z,16.80
2019-02-22T12:58:21.547Z,16.80
2019-02-22T13:00:53.000Z,16.90
2019-02-22T13:03:22.692Z,16.90
2019-02-22T13:05:52.375Z,17.00
2019-02-22T13:08:22.131Z,17.00
2019-02-22T13:10:51.848Z,17.00
2019-02-22T13:13:21.609Z,17.10
2019-02-22T13:15:51.343Z,17.10
2019-02-22T13:18:21.055Z,17.20
2019-02-22T13:20:53.181Z,17.20
2019-02-22T13:23:22.145Z,17.30
2019-02-22T13:25:51.856Z,17.30
2019-02-22T13:28:21.618Z,17.40
2019-02-22T13:30:52.282Z,17.40
2019-02-22T13:33:21.991Z,17.50
2019-02-22T13:35:51.653Z,17.50
2019-02-22T13:38:21.444Z,17.60
2019-02-22T13:40:51.151Z,17.60
2019-02-22T13:43:20.815Z,17.70
2019-02-22T13:45:50.692Z,17.80
2019-02-22T13:48:20.397Z,17.80
2019-02-22T13:50:50.100Z,17.90
2019-02-22T13:53:19.867Z,17.90
2019-02-22T13:55:49.573Z,18.00
2019-02-22T13:58:19.233Z,18.00
2019-02-22T14:01:08.203Z,18.10
2019-02-22T14:03:37.870Z,18.10
2019-02-22T14:06:07.532Z,18.10
2019-02-22T14:08:47.151Z,18.20
2019-02-22T14:11:16.869Z,18.20
2019-02-22T14:13:46.538Z,18.30
2019-02-22T14:16:16.276Z,18.30
2019-02-22T14:18:46.198Z,18.30
2019-02-22T14:21:16.479Z,18.40
2019-02-22T14:23:46.241Z,18.40
2019-02-22T14:26:16.248Z,18.30
2019-02-22T14:28:46.000Z,18.60
2019-02-22T14:31:15.751Z,18.60
2019-02-22T14:33:45.493Z,18.70
2019-02-22T14:36:15.260Z,18.70
2019-02-22T14:38:45.210Z,18.80
2019-02-22T14:41:14.884Z,18.80
2019-02-22T14:43:44.571Z,18.90
2019-02-22T14:46:25.329Z,18.90
2019-02-22T14:48:45.750Z,19.00
2019-02-22T14:51:15.460Z,19.00
2019-02-22T14:53:45.442Z,19.00
2019-02-22T14:56:15.129Z,19.10
2019-02-22T14:58:44.878Z,19.10
2019-02-22T15:01:14.577Z,19.20
2019-02-22T15:03:44.248Z,19.30
2019-02-22T15:06:14.015Z,19.30
2019-02-22T15:08:43.746Z,19.40
2019-02-22T15:11:13.479Z,19.40
2019-02-22T15:13:43.225Z,19.50
2019-02-22T15:16:14.566Z,19.60
2019-02-22T15:18:47.093Z,19.90
2019-02-22T15:21:17.376Z,20.80
2019-02-22T15:23:47.120Z,21.70
2019-02-22T15:26:16.747Z,22.30
2019-02-22T15:28:46.409Z,22.60
2019-02-22T15:31:16.104Z,22.70
2019-02-22T15:33:45.800Z,22.70
2019-02-22T15:36:16.188Z,22.70
2019-02-22T15:38:47.419Z,22.70
2019-02-22T15:41:17.359Z,22.70
2019-02-22T15:43:47.105Z,22.90
2019-02-22T15:46:16.760Z,23.10
2019-02-22T15:48:47.479Z,23.40
2019-02-22T15:51:17.229Z,23.70
2019-02-22T15:53:46.940Z,24.00
2019-02-22T15:56:18.425Z,24.30
2019-02-22T15:58:48.048Z,24.40
2019-02-22T16:01:17.828Z,24.60
2019-02-22T16:03:49.143Z,24.80
2019-02-22T16:06:19.017Z,24.90
2019-02-22T16:08:54.552Z,25.10
2019-02-22T16:11:24.587Z,25.30
2019-02-22T16:13:54.267Z,25.40
2019-02-22T16:16:25.521Z,25.40
2019-02-22T16:18:55.028Z,25.30
2019-02-22T16:21:24.904Z,25.20
2019-02-22T16:23:55.123Z,25.20
2019-02-22T16:26:26.428Z,25.20
2019-02-22T16:29:09.437Z,25.20
2019-02-22T16:31:52.829Z,25.10
2019-02-22T16:34:24.171Z,25.00
2019-02-22T16:36:53.858Z,24.70
2019-02-22T16:39:23.572Z,24.40
2019-02-22T16:41:53.247Z,24.00
2019-02-22T16:44:42.273Z,23.70
2019-02-22T16:47:12.083Z,23.50
2019-02-22T16:49:41.753Z,23.50
2019-02-22T16:52:11.460Z,23.50
2019-02-22T16:54:41.249Z,23.30
2019-02-22T16:57:10.944Z,23.10
2019-02-22T16:59:40.612Z,22.80
2019-02-22T17:02:10.327Z,22.40
2019-02-22T17:04:41.458Z,22.00
2019-02-22T17:07:11.247Z,21.60
2019-02-22T17:09:40.915Z,21.10
2019-02-22T17:12:10.584Z,20.90
2019-02-22T17:14:40.279Z,20.50
2019-02-22T17:17:09.977Z,20.20
2019-02-22T17:19:39.646Z,19.80
2019-02-22T17:22:09.777Z,19.50
2019-02-22T17:24:40.988Z,19.20
2019-02-22T17:27:17.952Z,19.00
2019-02-22T17:29:48.817Z,18.70
2019-02-22T17:32:18.491Z,18.40
2019-02-22T17:34:48.237Z,18.20
2019-02-22T17:37:17.871Z,18.00
2019-02-22T17:39:47.733Z,17.80
2019-02-22T17:42:21.527Z,17.60
2019-02-22T17:44:51.201Z,17.40
2019-02-22T17:47:20.940Z,17.30
2019-02-22T17:49:50.649Z,17.10
2019-02-22T17:52:20.323Z,17.00
2019-02-22T17:54:50.008Z,16.90
2019-02-22T17:57:20.466Z,16.80
2019-02-22T17:59:50.137Z,16.60
2019-02-22T18:02:19.907Z,16.50
2019-02-22T18:04:50.085Z,16.40
2019-02-22T18:07:21.250Z,16.30
2019-02-22T18:09:51.199Z,16.20
2019-02-22T18:12:20.967Z,16.10
2019-02-22T18:14:50.644Z,16.00
2019-02-22T18:17:21.014Z,15.90
2019-02-22T18:19:50.728Z,15.80
2019-02-22T18:22:25.682Z,15.70
2019-02-22T18:24:51.992Z,15.60
2019-02-22T18:27:21.693Z,15.60
2019-02-22T18:29:51.441Z,15.50
2019-02-22T18:32:21.194Z,15.40
2019-02-22T18:34:50.952Z,15.30
2019-02-22T18:37:20.689Z,15.20
2019-02-22T18:39:50.650Z,15.20
2019-02-22T18:42:20.359Z,15.10
2019-02-22T18:44:50.078Z,15.10
2019-02-22T18:47:24.409Z,15.00
2019-02-22T18:49:54.113Z,14.90
2019-02-22T18:52:23.786Z,14.90
2019-02-22T18:54:53.494Z,14.80
2019-02-22T18:57:23.181Z,14.80
2019-02-22T18:59:52.859Z,14.70
2019-02-22T19:02:22.538Z,14.60
2019-02-22T19:04:52.245Z,14.60
2019-02-22T19:07:21.925Z,14.50
2019-02-22T19:09:51.621Z,14.40
2019-02-22T19:12:21.351Z,14.40
2019-02-22T19:14:51.007Z,14.40
2019-02-22T19:17:30.140Z,14.30
2019-02-22T19:19:52.100Z,14.30
2019-02-22T19:22:23.399Z,14.20
2019-02-22T19:24:53.789Z,14.20
2019-02-22T19:27:24.040Z,14.10
2019-02-22T19:29:53.720Z,14.10
2019-02-22T19:32:23.457Z,14.00
2019-02-22T19:34:53.167Z,14.00
2019-02-22T19:37:26.092Z,14.00
2019-02-22T19:39:58.778Z,13.90
2019-02-22T19:42:29.031Z,13.90
2019-02-22T19:45:02.904Z,13.90
2019-02-22T19:47:41.793Z,13.80
2019-02-22T19:50:12.851Z,13.80
2019-02-22T19:53:02.827Z,13.70
2019-02-22T19:55:34.284Z,13.70
2019-02-22T19:58:05.089Z,13.60
2019-02-22T20:00:35.651Z,13.60
2019-02-22T20:03:06.517Z,13.60
2019-02-22T20:05:37.275Z,13.50
2019-02-22T20:08:09.168Z,13.30
2019-02-22T20:10:39.874Z,13.50
2019-02-22T20:13:10.607Z,13.50
2019-02-22T20:15:40.338Z,13.40
2019-02-22T20:18:10.085Z,13.40
2019-02-22T20:20:39.895Z,13.40
2019-02-22T20:23:09.599Z,13.30
2019-02-22T20:25:39.275Z,13.30
2019-02-22T20:28:08.954Z,13.30
2019-02-22T20:30:38.735Z,13.20
2019-02-22T20:33:08.401Z,13.20
2019-02-22T20:35:38.066Z,13.20
2019-02-22T20:38:09.341Z,13.10
2019-02-22T20:40:39.018Z,13.10
2019-02-22T20:43:08.688Z,13.00
2019-02-22T20:45:38.391Z,13.00
2019-02-22T20:48:08.137Z,13.00
2019-02-22T20:50:37.813Z,12.90
2019-02-22T20:53:07.507Z,12.90
2019-02-22T20:55:37.191Z,12.90
2019-02-22T20:58:06.934Z,12.80
2019-02-22T21:00:38.037Z,12.80
2019-02-22T21:03:07.730Z,12.80
2019-02-22T21:05:37.400Z,12.80
2019-02-22T21:08:07.115Z,12.80
2019-02-22T21:10:36.774Z,12.80
2019-02-22T21:13:06.458Z,12.70
2019-02-22T21:15:36.163Z,12.70
2019-02-22T21:18:15.992Z,12.70
2019-02-22T21:20:37.237Z,12.70
2019-02-22T21:23:06.931Z,12.60
2019-02-22T21:25:36.620Z,12.60
2019-02-22T21:28:06.325Z,12.60
2019-02-22T21:30:36.039Z,12.60
2019-02-22T21:33:05.704Z,12.60
2019-02-22T21:35:35.395Z,12.50
2019-02-22T21:38:06.064Z,12.50
2019-02-22T21:40:35.743Z,12.50
2019-02-22T21:43:06.491Z,12.50
2019-02-22T21:45:36.176Z,12.50
2019-02-22T21:48:05.873Z,12.40
2019-02-22T21:50:35.350Z,12.40
2019-02-22T21:53:05.039Z,12.30
2019-02-22T21:55:35.596Z,12.30
2019-02-22T21:58:09.761Z,12.30
2019-02-22T22:00:39.463Z,12.30
2019-02-22T22:03:10.735Z,12.20
2019-02-22T22:05:41.102Z,12.20
2019-02-22T22:08:10.810Z,12.20
2019-02-22T22:10:40.516Z,12.20
2019-02-22T22:13:10.179Z,12.10
2019-02-22T22:15:39.875Z,12.10
2019-02-22T22:18:11.187Z,12.10
2019-02-22T22:20:40.857Z,12.10
2019-02-22T22:23:10.577Z,12.00
2019-02-22T22:25:40.242Z,12.00
2019-02-22T22:28:09.852Z,12.00
2019-02-22T22:30:39.552Z,12.00
2019-02-22T22:33:10.380Z,11.90
2019-02-22T22:35:40.270Z,11.90
2019-02-22T22:38:10.013Z,11.90
2019-02-22T22:40:39.752Z,11.90
2019-02-22T22:43:09.499Z,11.90
2019-02-22T22:45:39.935Z,11.90
2019-02-22T22:48:09.582Z,11.90
2019-02-22T22:50:39.272Z,11.90
2019-02-22T22:53:10.185Z,11.90
2019-02-22T22:55:39.922Z,11.90
2019-02-22T22:58:09.710Z,11.90
2019-02-22T23:00:51.342Z,11.90
2019-02-22T23:03:21.907Z,11.90
2019-02-22T23:05:51.608Z,11.80
2019-02-22T23:08:21.309Z,11.90
2019-02-22T23:10:50.988Z,11.90
2019-02-22T23:13:20.667Z,11.90
2019-02-22T23:15:50.438Z,11.90
2019-02-22T23:18:20.113Z,11.90
2019-02-22T23:20:49.798Z,11.90
2019-02-22T23:23:19.499Z,11.90
2019-02-22T23:25:49.245Z,11.90
2019-02-22T23:28:18.904Z,11.90
2019-02-22T23:30:48.617Z,11.90
2019-02-22T23:33:18.276Z,11.90
2019-02-22T23:35:47.966Z,11.90
2019-02-22T23:38:17.646Z,11.90
2019-02-22T23:40:47.358Z,11.90
2019-02-22T23:43:17.044Z,11.90
2019-02-22T23:45:46.909Z,11.90
2019-02-22T23:48:16.578Z,11.90
2019-02-22T23:50:46.264Z,11.80
2019-02-22T23:53:15.974Z,11.80
2019-02-22T23:55:45.658Z,11.80
2019-02-22T23:58:15.342Z,11.80
